Conroe, TX

02:01 PM CDT del 26 Settembre 2016 (GMT -0500)
Roy Harris Loop Conroe | | Change Station

Alt. 220 ft 30.30 °N, 95.37 °W | Updated 59 seconds ago

Overcast
Coperto
80.3 °F
Sembra 85 °F
N
1.0
Vento Variabile Vento da NO
Gusts 8.0 mph

Oggi
Massima -- | Minima -- °F
--% Possibilità di precip.
Ieri
Massima -- | Minima -- °F
Precip. -- in
Pressione 30.03 in
Visibilità 10.0 miglia
Nuvole Coperto 1800 ft
Indice di calore 85 °F
Punto di rugiada 75 °F
Umidità 83%
Piovosità 0.00 in
Spessore del manto nevoso Non disponibile.
7:12 AM 7:12 PM
Luna calante, 17% visible
METAR KCXO 261853Z 33006KT 10SM OVC018 27/22 A3004 RMK AO2 SLP168 T02670222
Pressione 30.03 in
Visibilità 10.0 miglia
Nuvole Coperto 1800 ft
Indice di calore 85 °F
Punto di rugiada 75 °F
Umidità 83%
Piovosità 0.00 in
Spessore del manto nevoso Non disponibile.
7:12 AM 7:12 PM
Luna calante, 17% visible
METAR KCXO 261853Z 33006KT 10SM OVC018 27/22 A3004 RMK AO2 SLP168 T02670222

10-Day Weather Forecast

Almanac

Astronomia

Sep. 26, 2016 Alba Tramonto
Ora attuale
Crepuscolo civile
Crepuscolo nautico
Crepuscolo astronomico
Luna
Estensione della luce visibile
Lunghezza del giorno
Tomorrow will be .
, % of the Moon is Illuminated

Gli estremi di oggi

State Highs State Lows

Community

WunderPhotos

Upload Photos

1,941,951 foto caricate!

WunderBlog® & News

Nearby

Qualità dell'aria

  Qualità dell'aria Indice AQ Inquinante
Not available.

Profondità neve

Stazione Profondità Altitudine

Attività sismica

Città  Distanza Mag. Data & Ora
Minimo Magnitudo Mostrato è 2.5.

Temperature delle acque costiere

Località Temperatura

Stations

Stazioni meteo nelle vicinanze

Ubicazione della stazione Temp. Raffreddamento del vento Punto di rugiada Umidità Vento Precip. Alt. Aggiornato Tipo
                   

Watches & Warnings

There are currently no watches in effect.